TimeCDT,TemperatureF,Dew PointF,Humidity,Sea Level PressureIn,VisibilityMPH,Wind Direction,Wind SpeedMPH,Gust SpeedMPH,PrecipitationIn,Events,Conditions,WindDirDegrees,DateUTC
12:15 AM,46.4,37.4,71,29.83,10.0,WSW,4.6,-,N/A,,Clear,240,2012-10-18 05:15:00
12:35 AM,46.4,37.4,71,29.83,10.0,WSW,4.6,-,N/A,,Clear,250,2012-10-18 05:35:00
1:15 AM,46.4,39.2,76,29.83,10.0,Calm,Calm,-,N/A,,Clear,0,2012-10-18 06:15:00
1:55 AM,44.6,37.4,76,29.85,10.0,West,3.5,-,N/A,,Clear,270,2012-10-18 06:55:00
2:15 AM,44.6,39.2,81,29.86,10.0,West,4.6,-,N/A,,Clear,270,2012-10-18 07:15:00
2:55 AM,42.8,37.4,81,29.86,10.0,West,4.6,-,N/A,,Clear,270,2012-10-18 07:55:00
3:15 AM,42.8,35.6,76,29.86,10.0,West,5.8,-,N/A,,Clear,260,2012-10-18 08:15:00
3:35 AM,42.8,35.6,76,29.86,10.0,West,4.6,-,N/A,,Clear,260,2012-10-18 08:35:00
3:55 AM,42.8,35.6,76,29.86,10.0,West,4.6,-,N/A,,Clear,260,2012-10-18 08:55:00
4:15 AM,44.6,33.8,66,29.86,10.0,West,4.6,-,N/A,,Clear,260,2012-10-18 09:15:00
4:35 AM,44.6,33.8,66,29.86,10.0,WSW,5.8,-,N/A,,Clear,250,2012-10-18 09:35:00
4:55 AM,42.8,33.8,70,29.86,10.0,West,4.6,-,N/A,,Clear,260,2012-10-18 09:55:00
5:15 AM,42.8,33.8,70,29.86,10.0,West,4.6,-,N/A,,Clear,270,2012-10-18 10:15:00
5:35 AM,44.6,33.8,66,29.87,10.0,WNW,5.8,-,N/A,,Clear,290,2012-10-18 10:35:00
5:55 AM,42.8,32.0,66,29.88,10.0,West,4.6,-,N/A,,Clear,280,2012-10-18 10:55:00
6:35 AM,44.6,32.0,61,29.89,10.0,WNW,9.2,-,N/A,,Clear,290,2012-10-18 11:35:00
6:55 AM,46.4,32.0,57,29.90,10.0,WNW,8.1,-,N/A,,Clear,300,2012-10-18 11:55:00
7:15 AM,46.4,32.0,57,29.90,10.0,WNW,6.9,-,N/A,,Clear,290,2012-10-18 12:15:00
7:35 AM,44.6,32.0,61,29.90,10.0,West,6.9,-,N/A,,Clear,280,2012-10-18 12:35:00
7:55 AM,46.4,32.0,57,29.90,10.0,WNW,8.1,-,N/A,,Clear,290,2012-10-18 12:55:00
8:15 AM,46.4,32.0,57,29.90,10.0,WNW,6.9,-,N/A,,Clear,290,2012-10-18 13:15:00
8:35 AM,46.4,32.0,57,29.91,10.0,West,6.9,-,N/A,,Clear,280,2012-10-18 13:35:00
8:55 AM,50.0,32.0,50,29.92,10.0,West,10.4,-,N/A,,Clear,280,2012-10-18 13:55:00
9:15 AM,51.8,32.0,47,29.92,10.0,West,11.5,17.3,N/A,,Clear,280,2012-10-18 14:15:00
9:35 AM,53.6,32.0,44,29.92,10.0,WNW,12.7,18.4,N/A,,Clear,290,2012-10-18 14:35:00
9:55 AM,53.6,32.0,44,29.93,10.0,WNW,15.0,-,N/A,,Clear,290,2012-10-18 14:55:00
10:15 AM,55.4,32.0,41,29.92,10.0,WNW,9.2,-,N/A,,Clear,300,2012-10-18 15:15:00
10:35 AM,59.0,32.0,36,29.92,10.0,NW,12.7,16.1,N/A,,Clear,310,2012-10-18 15:35:00
10:55 AM,59.0,30.2,34,29.91,10.0,WNW,21.9,28.8,N/A,,Clear,290,2012-10-18 15:55:00
11:15 AM,60.8,28.4,29,29.91,10.0,NW,16.1,25.3,N/A,,Clear,310,2012-10-18 16:15:00
11:35 AM,60.8,30.2,31,29.91,10.0,WNW,20.7,25.3,N/A,,Clear,290,2012-10-18 16:35:00
11:55 AM,62.6,28.4,27,29.91,10.0,WNW,17.3,26.5,N/A,,Clear,300,2012-10-18 16:55:00
12:15 PM,62.6,28.4,27,29.91,10.0,WNW,17.3,29.9,N/A,,Clear,290,2012-10-18 17:15:00
12:35 PM,62.6,26.6,26,29.91,10.0,West,19.6,31.1,N/A,,Clear,280,2012-10-18 17:35:00
12:55 PM,62.6,28.4,27,29.90,10.0,West,24.2,31.1,N/A,,Clear,270,2012-10-18 17:55:00
1:15 PM,62.6,26.6,26,29.88,10.0,WNW,18.4,33.4,N/A,,Clear,300,2012-10-18 18:15:00
1:35 PM,64.4,28.4,26,29.88,10.0,WNW,19.6,28.8,N/A,,Clear,290,2012-10-18 18:35:00
2:15 PM,66.2,26.6,23,29.86,10.0,West,26.5,33.4,N/A,,Clear,280,2012-10-18 19:15:00
2:35 PM,66.2,26.6,23,29.85,10.0,WNW,24.2,33.4,N/A,,Clear,290,2012-10-18 19:35:00
2:55 PM,66.2,24.8,21,29.84,10.0,WNW,26.5,34.5,N/A,,Clear,290,2012-10-18 19:55:00
3:15 PM,68.0,24.8,20,29.84,10.0,West,28.8,38.0,N/A,,Clear,270,2012-10-18 20:15:00
3:35 PM,68.0,24.8,20,29.84,10.0,WNW,23.0,38.0,N/A,,Clear,290,2012-10-18 20:35:00
3:55 PM,68.0,24.8,20,29.84,10.0,WNW,25.3,34.5,N/A,,Clear,290,2012-10-18 20:55:00
4:35 PM,68.0,26.6,21,29.83,10.0,WNW,21.9,32.2,N/A,,Clear,300,2012-10-18 21:35:00
4:55 PM,68.0,24.8,20,29.82,10.0,WNW,26.5,33.4,N/A,,Clear,290,2012-10-18 21:55:00
5:15 PM,68.0,24.8,20,29.82,10.0,WNW,18.4,31.1,N/A,,Clear,300,2012-10-18 22:15:00
5:35 PM,66.2,24.8,21,29.82,7.0,WNW,16.1,33.4,N/A,,Clear,290,2012-10-18 22:35:00
5:55 PM,64.4,26.6,24,29.83,7.0,WNW,13.8,20.7,N/A,,Clear,300,2012-10-18 22:55:00
6:15 PM,64.4,26.6,24,29.83,7.0,WNW,12.7,21.9,N/A,,Scattered Clouds,300,2012-10-18 23:15:00
6:55 PM,62.6,26.6,26,29.83,7.0,WNW,10.4,-,N/A,,Overcast,290,2012-10-18 23:55:00
7:15 PM,62.6,26.6,26,29.84,5.0,WNW,10.4,-,N/A,,Haze,290,2012-10-19 00:15:00
7:35 PM,62.6,26.6,26,29.85,5.0,WNW,9.2,-,N/A,,Haze,290,2012-10-19 00:35:00
7:55 PM,62.6,26.6,26,29.85,5.0,WNW,9.2,-,N/A,,Haze,290,2012-10-19 00:55:00
8:15 PM,62.6,26.6,26,29.86,4.0,West,11.5,16.1,N/A,,Haze,280,2012-10-19 01:15:00
8:55 PM,62.6,26.6,26,29.86,3.0,WNW,13.8,18.4,N/A,,Haze,290,2012-10-19 01:55:00
9:15 PM,62.6,26.6,26,29.86,2.5,WNW,12.7,17.3,N/A,,Haze,290,2012-10-19 02:15:00
9:35 PM,60.8,26.6,27,29.86,2.5,West,16.1,20.7,N/A,,Haze,280,2012-10-19 02:35:00
9:55 PM,62.6,24.8,24,29.86,2.5,WNW,16.1,20.7,N/A,,Haze,290,2012-10-19 02:55:00
10:15 PM,62.6,23.0,22,29.86,2.5,West,17.3,23.0,N/A,,Haze,280,2012-10-19 03:15:00
10:35 PM,60.8,24.8,25,29.86,2.5,West,16.1,-,N/A,,Haze,280,2012-10-19 03:35:00
10:55 PM,60.8,24.8,25,29.86,2.5,West,12.7,-,N/A,,Haze,280,2012-10-19 03:55:00